To NAV CANADA Home Page Login to a new session Search on AWWS site Feedback and Comments Disclaimer Vers la page française équivalente Tips FAQ What's new on the site To the Forecasts and Observations / NOTAM section To "File a Flight Plan" website Publications and other links Update of the User's profile FIC Telephone Numbers My Weather Data Folder Route Weather Data Regional Weather Data Local Weather Data To the Forecasts and Observations / NOTAM section
Request Generated 05/27/2016 at 10:10:22 UTC . Weather information available at that time is displayed.

METAR/TAF

COMOX/BC    

METAR CYQQ 271000Z 32004KT 20SM FEW060 BKN110 09/06 A3010 RMK SC2AC2 SLP193=
METAR CYQQ 270900Z 31002KT 20SM SCT110 09/06 A3009 RMK AC2 SLP191=
METAR CYQQ 270800Z 28002KT 20SM FEW060 SCT080 BKN110 10/07 A3008 RMK SC2AC1AC1 SLP188=

TAF CYQQ 270539Z 2706/2806 29005KT P6SM FEW030 SCT050 BKN070
FM270900 32008KT P6SM SCT050
FM271500 34005KT P6SM BKN050
BECMG 2716/2718 07005KT
FM272000 VRB03KT P6SM OVC040 TEMPO 2720/2803 P6SM -SHRA
FM280300 VRB03KT P6SM BKN030 TEMPO 2803/2806 P6SM -SHRA BKN020
RMK NXT FCST BY 271200Z=
Your time UTC time
Weather data provided by Environment Canada and NAV CANADA